createdAt,value
2023-02-09T00:01:38.487Z,28.10
2023-02-09T00:04:08.458Z,28.50
2023-02-09T00:06:39.219Z,25.10
2023-02-09T00:09:10.215Z,25.50
2023-02-09T00:12:01.915Z,25.50
2023-02-09T00:14:34.865Z,25.60
2023-02-09T00:17:07.164Z,26.60
2023-02-09T00:19:37.009Z,30.10
2023-02-09T00:22:06.807Z,22.40
2023-02-09T00:24:39.665Z,28.20
2023-02-09T00:27:09.704Z,24.70
2023-02-09T00:29:39.397Z,29.20
2023-02-09T00:32:09.248Z,16.00
2023-02-09T00:34:39.026Z,29.10
2023-02-09T00:37:08.965Z,26.20
2023-02-09T00:39:38.888Z,22.60
2023-02-09T00:42:08.430Z,29.30
2023-02-09T00:44:42.298Z,22.20
2023-02-09T00:47:12.637Z,34.00
2023-02-09T00:49:44.075Z,24.00
2023-02-09T00:52:13.619Z,23.30
2023-02-09T00:54:43.169Z,25.70
2023-02-09T00:57:15.654Z,21.40
2023-02-09T00:59:44.780Z,24.40
2023-02-09T01:02:14.633Z,25.00
2023-02-09T01:04:44.479Z,22.20
2023-02-09T01:07:14.623Z,30.50
2023-02-09T01:09:45.843Z,27.00
2023-02-09T01:12:16.150Z,28.10
2023-02-09T01:14:46.825Z,27.90
2023-02-09T01:17:16.352Z,28.00
2023-02-09T01:19:45.694Z,23.20
2023-02-09T01:22:21.049Z,24.80
2023-02-09T01:24:51.529Z,25.30
2023-02-09T01:27:20.559Z,28.40
2023-02-09T01:29:50.978Z,22.50
2023-02-09T01:32:20.578Z,18.80
2023-02-09T01:34:53.236Z,21.40
2023-02-09T01:37:23.592Z,25.50
2023-02-09T01:39:54.192Z,20.80
2023-02-09T01:42:23.851Z,19.90
2023-02-09T01:45:16.584Z,20.00
2023-02-09T01:47:56.011Z,22.70
2023-02-09T01:50:31.241Z,19.20
2023-02-09T01:53:04.103Z,24.70
2023-02-09T01:55:41.063Z,24.70
2023-02-09T01:58:18.253Z,30.10
2023-02-09T02:00:51.654Z,29.00
2023-02-09T02:03:27.016Z,22.50
2023-02-09T02:06:06.665Z,23.90
2023-02-09T02:08:43.989Z,26.30
2023-02-09T02:11:14.033Z,22.20
2023-02-09T02:13:44.407Z,19.30
2023-02-09T02:16:40.449Z,21.30
2023-02-09T02:19:33.378Z,19.70
2023-02-09T02:22:27.581Z,25.00
2023-02-09T02:25:01.111Z,18.20
2023-02-09T02:27:48.096Z,26.20
2023-02-09T02:30:35.228Z,19.30
2023-02-09T02:33:19.482Z,21.20
2023-02-09T02:36:14.446Z,24.90
2023-02-09T02:39:12.765Z,21.70
2023-02-09T02:42:21.467Z,21.30
2023-02-09T02:45:29.949Z,22.60
2023-02-09T02:48:11.256Z,23.80
2023-02-09T02:50:58.355Z,17.10
2023-02-09T02:53:33.031Z,20.30
2023-02-09T02:57:03.872Z,25.00
2023-02-09T02:59:42.378Z,22.30
2023-02-09T03:02:29.295Z,28.10
2023-02-09T03:05:02.035Z,23.80
2023-02-09T03:07:33.398Z,21.30
2023-02-09T03:10:33.125Z,21.00
2023-02-09T03:13:34.414Z,18.70
2023-02-09T03:16:22.094Z,22.80
2023-02-09T03:18:56.772Z,20.60
2023-02-09T03:21:50.253Z,23.60
2023-02-09T03:24:46.434Z,24.00
2023-02-09T03:27:17.706Z,27.30
2023-02-09T03:29:55.770Z,19.60
2023-02-09T03:32:26.533Z,20.60
2023-02-09T03:34:58.494Z,25.10
2023-02-09T03:37:28.478Z,29.60
2023-02-09T03:39:57.727Z,26.60
2023-02-09T03:42:27.035Z,27.70
2023-02-09T03:44:57.085Z,23.00
2023-02-09T03:47:26.563Z,24.20
2023-02-09T03:49:58.914Z,27.70
2023-02-09T03:52:31.489Z,27.20
2023-02-09T03:55:02.317Z,28.20
2023-02-09T03:57:33.993Z,26.60
2023-02-09T04:00:04.621Z,25.30
2023-02-09T04:02:43.909Z,24.70
2023-02-09T04:05:14.252Z,26.10
2023-02-09T04:07:45.195Z,27.30
2023-02-09T04:10:15.835Z,27.30
2023-02-09T04:12:45.939Z,31.70
2023-02-09T04:15:15.786Z,28.70
2023-02-09T04:17:49.902Z,34.50
2023-02-09T04:20:20.404Z,23.70
2023-02-09T04:22:49.982Z,26.60
2023-02-09T04:25:19.971Z,34.60
2023-02-09T04:27:50.139Z,31.20
2023-02-09T04:30:20.204Z,24.60
2023-02-09T04:32:50.737Z,23.20
2023-02-09T04:35:22.707Z,22.40
2023-02-09T04:37:53.333Z,27.70
2023-02-09T04:40:23.140Z,33.90
2023-02-09T04:42:53.494Z,22.70
2023-02-09T04:45:27.126Z,31.20
2023-02-09T04:47:56.327Z,35.90
2023-02-09T04:50:26.777Z,25.70
2023-02-09T04:52:57.355Z,33.00
2023-02-09T04:55:27.548Z,28.40
2023-02-09T04:58:17.296Z,33.10
2023-02-09T05:00:50.431Z,26.60
2023-02-09T05:03:22.520Z,23.70
2023-02-09T05:06:02.418Z,19.30
2023-02-09T05:08:32.351Z,21.20
2023-02-09T05:11:02.909Z,30.30
2023-02-09T05:13:35.154Z,31.00
2023-02-09T05:16:13.134Z,30.30
2023-02-09T05:18:46.985Z,31.70
2023-02-09T05:21:19.147Z,34.30
2023-02-09T05:23:48.337Z,34.00
2023-02-09T05:26:20.600Z,29.00
2023-02-09T05:28:50.685Z,27.60
2023-02-09T05:31:22.532Z,29.30
2023-02-09T05:33:52.380Z,32.30
2023-02-09T05:36:21.924Z,35.60
2023-02-09T05:38:51.407Z,26.10
2023-02-09T05:41:41.990Z,34.90
2023-02-09T05:44:12.624Z,29.90
2023-02-09T05:46:42.645Z,30.10
2023-02-09T05:49:13.285Z,39.50
2023-02-09T05:51:43.814Z,28.70
2023-02-09T05:54:16.291Z,38.00
2023-02-09T05:56:46.651Z,35.60
2023-02-09T05:59:16.676Z,33.80
2023-02-09T06:01:50.248Z,33.70
2023-02-09T06:04:20.952Z,37.40
2023-02-09T06:06:51.170Z,38.20
2023-02-09T06:09:22.303Z,27.30
2023-02-09T06:11:52.125Z,33.50
2023-02-09T06:14:23.392Z,34.50
2023-02-09T06:16:55.214Z,30.30
2023-02-09T06:19:27.685Z,33.40
2023-02-09T06:21:58.253Z,28.10
2023-02-09T06:24:28.046Z,29.30
2023-02-09T06:26:57.267Z,34.20
2023-02-09T06:29:26.620Z,29.10
2023-02-09T06:31:57.534Z,35.00
2023-02-09T06:34:28.940Z,34.80
2023-02-09T06:36:58.173Z,34.00
2023-02-09T06:39:29.978Z,42.60
2023-02-09T06:42:00.699Z,42.00
2023-02-09T06:44:30.809Z,51.10
2023-02-09T06:47:02.195Z,43.80
2023-02-09T06:49:33.246Z,38.10
2023-02-09T06:52:02.887Z,43.60
2023-02-09T06:54:33.061Z,39.50
2023-02-09T06:57:02.484Z,41.50
2023-02-09T06:59:32.606Z,41.40
2023-02-09T07:02:02.222Z,40.30
2023-02-09T07:04:32.874Z,45.30
2023-02-09T07:07:07.383Z,51.10
2023-02-09T07:09:39.737Z,46.70
2023-02-09T07:12:11.436Z,50.70
2023-02-09T07:14:42.394Z,50.50
2023-02-09T07:17:16.509Z,45.30
2023-02-09T07:19:51.745Z,44.80
2023-02-09T07:22:23.326Z,43.20
2023-02-09T07:24:58.165Z,50.90
2023-02-09T07:27:28.152Z,41.90
2023-02-09T07:30:00.465Z,45.20
2023-02-09T07:32:30.879Z,40.60
2023-02-09T07:35:02.816Z,38.30
2023-02-09T07:37:34.575Z,36.00
2023-02-09T07:40:18.752Z,51.90
2023-02-09T07:42:52.251Z,41.10
2023-02-09T07:45:22.648Z,45.80
2023-02-09T07:47:53.558Z,41.40
2023-02-09T07:50:25.441Z,44.10
2023-02-09T07:52:56.121Z,33.50
2023-02-09T07:55:27.858Z,42.20
2023-02-09T07:57:58.055Z,42.80
2023-02-09T08:00:28.600Z,40.30
2023-02-09T08:02:57.873Z,43.90
2023-02-09T08:05:50.858Z,44.70
2023-02-09T08:08:20.294Z,43.50
2023-02-09T08:10:54.038Z,41.20
2023-02-09T08:13:33.411Z,42.80
2023-02-09T08:16:06.126Z,41.80
2023-02-09T08:18:43.640Z,44.20
2023-02-09T08:21:17.762Z,45.30
2023-02-09T08:23:56.787Z,42.70
2023-02-09T08:26:27.630Z,43.90
2023-02-09T08:29:04.397Z,41.20
2023-02-09T08:31:46.240Z,52.60
2023-02-09T08:34:21.352Z,56.40
2023-02-09T08:36:54.078Z,44.40
2023-02-09T08:39:36.802Z,43.00
2023-02-09T08:42:06.380Z,49.00
2023-02-09T08:44:36.438Z,43.40
2023-02-09T08:47:06.029Z,55.20
2023-02-09T08:49:37.144Z,47.20
2023-02-09T08:52:08.739Z,45.30
2023-02-09T08:54:39.328Z,48.10
2023-02-09T08:57:09.436Z,47.70
2023-02-09T08:59:38.622Z,47.70
2023-02-09T09:02:08.812Z,39.10
2023-02-09T09:04:39.044Z,40.30
2023-02-09T09:07:10.596Z,41.30
2023-02-09T09:09:40.735Z,45.80
2023-02-09T09:12:11.120Z,41.90
2023-02-09T09:14:42.308Z,40.40
2023-02-09T09:17:11.674Z,40.90
2023-02-09T09:19:42.501Z,41.10
2023-02-09T09:22:15.957Z,43.10
2023-02-09T09:24:45.860Z,47.80
2023-02-09T09:27:17.885Z,39.80
2023-02-09T09:29:48.955Z,42.70
2023-02-09T09:32:25.901Z,36.40
2023-02-09T09:34:59.348Z,38.10
2023-02-09T09:37:29.596Z,30.90
2023-02-09T09:39:59.969Z,32.80
2023-02-09T09:42:43.365Z,34.00
2023-02-09T09:45:16.949Z,25.40
2023-02-09T09:47:48.396Z,29.20
2023-02-09T09:50:32.958Z,22.10
2023-02-09T09:53:09.544Z,20.50
2023-02-09T09:55:43.543Z,23.00
2023-02-09T09:58:23.975Z,24.50
2023-02-09T10:00:55.883Z,22.60
2023-02-09T10:03:26.756Z,22.30
2023-02-09T10:06:18.618Z,19.10
2023-02-09T10:09:19.445Z,21.30
2023-02-09T10:12:04.568Z,18.00
2023-02-09T10:14:43.978Z,17.10
2023-02-09T10:20:12.366Z,16.00
2023-02-09T10:23:04.974Z,14.20
2023-02-09T10:26:02.589Z,20.10
2023-02-09T10:28:46.443Z,17.40
2023-02-09T10:34:50.728Z,19.50
2023-02-09T10:37:44.722Z,18.60
2023-02-09T10:40:47.775Z,17.80
2023-02-09T10:43:36.179Z,19.10
2023-02-09T10:46:30.433Z,18.30
2023-02-09T10:49:46.561Z,19.70
2023-02-09T10:52:36.947Z,16.10
2023-02-09T10:55:38.037Z,13.40
2023-02-09T10:58:39.347Z,14.60
2023-02-09T11:01:46.376Z,21.70
2023-02-09T11:04:40.479Z,17.20
2023-02-09T11:07:55.756Z,15.20
2023-02-09T11:10:55.894Z,17.40
2023-02-09T11:13:35.740Z,15.20
2023-02-09T11:16:52.406Z,17.80
2023-02-09T11:19:43.253Z,16.00
2023-02-09T11:22:46.516Z,16.40
2023-02-09T11:25:42.456Z,20.40
2023-02-09T11:28:28.239Z,21.60
2023-02-09T11:31:32.376Z,18.40
2023-02-09T11:34:45.090Z,15.60
2023-02-09T11:37:47.693Z,17.00
2023-02-09T11:40:39.549Z,17.40
2023-02-09T11:43:11.469Z,19.00
2023-02-09T11:46:04.863Z,15.20
2023-02-09T11:49:09.198Z,23.00
2023-02-09T11:52:11.838Z,19.90
2023-02-09T11:55:34.558Z,13.70
2023-02-09T11:58:29.671Z,16.70
2023-02-09T12:01:38.505Z,13.40
2023-02-09T12:04:46.722Z,17.10
2023-02-09T12:07:46.192Z,12.90
2023-02-09T12:10:52.118Z,13.30
2023-02-09T12:14:04.169Z,13.20
2023-02-09T12:16:50.541Z,13.60
2023-02-09T12:19:50.536Z,17.50
2023-02-09T12:22:48.403Z,14.80
2023-02-09T12:26:09.077Z,15.30
2023-02-09T12:29:01.205Z,14.30
2023-02-09T12:31:58.385Z,14.80
2023-02-09T12:34:57.148Z,14.10
2023-02-09T12:37:41.291Z,15.60
2023-02-09T12:40:42.646Z,13.40
2023-02-09T12:43:35.258Z,15.40
2023-02-09T12:46:55.702Z,14.60
2023-02-09T12:49:28.510Z,14.30
2023-02-09T12:52:01.785Z,14.90
2023-02-09T12:54:42.835Z,14.70
2023-02-09T12:57:17.672Z,13.40
2023-02-09T13:00:05.525Z,17.40
2023-02-09T13:02:47.342Z,20.20
2023-02-09T13:05:27.835Z,18.10
2023-02-09T13:08:04.550Z,17.90
2023-02-09T13:11:00.246Z,19.50
2023-02-09T13:13:57.018Z,17.90
2023-02-09T13:16:30.511Z,18.80
2023-02-09T13:19:15.659Z,18.90
2023-02-09T13:22:16.775Z,20.60
2023-02-09T13:25:03.931Z,18.10
2023-02-09T13:27:52.265Z,20.30
2023-02-09T13:30:33.534Z,24.10
2023-02-09T13:33:36.552Z,18.10
2023-02-09T13:36:42.655Z,18.80
2023-02-09T13:39:27.322Z,17.90
2023-02-09T13:42:09.724Z,32.10
2023-02-09T13:44:48.140Z,18.10
2023-02-09T13:47:20.932Z,16.40
2023-02-09T13:52:45.044Z,16.30
2023-02-09T13:55:23.631Z,15.70
2023-02-09T13:58:07.688Z,17.00
2023-02-09T14:01:09.352Z,19.60
2023-02-09T14:03:58.211Z,17.20
2023-02-09T14:06:46.696Z,14.50
2023-02-09T14:09:33.712Z,16.40
2023-02-09T14:12:09.765Z,13.90
2023-02-09T14:15:04.176Z,14.30
2023-02-09T14:17:36.287Z,12.00
2023-02-09T14:20:22.140Z,18.10
2023-02-09T14:23:02.075Z,15.30
2023-02-09T14:25:32.331Z,14.30
2023-02-09T14:28:03.924Z,13.80
2023-02-09T14:30:37.846Z,13.10
2023-02-09T14:33:29.723Z,15.20
2023-02-09T14:36:03.595Z,13.60
2023-02-09T14:38:41.788Z,15.10
2023-02-09T14:41:32.125Z,15.30
2023-02-09T14:44:22.780Z,13.70
2023-02-09T14:47:00.479Z,16.40
2023-02-09T14:49:31.341Z,16.80
2023-02-09T14:52:05.880Z,14.30
2023-02-09T14:54:50.071Z,13.40
2023-02-09T14:57:21.766Z,13.40
2023-02-09T14:59:52.118Z,14.40
2023-02-09T15:02:27.671Z,18.60
2023-02-09T15:04:56.952Z,12.20
2023-02-09T15:07:36.583Z,16.00
2023-02-09T15:10:14.855Z,15.30
2023-02-09T15:12:44.544Z,12.90
2023-02-09T15:15:20.338Z,12.00
2023-02-09T15:17:50.759Z,14.00
2023-02-09T15:20:26.696Z,18.50
2023-02-09T15:23:01.720Z,11.90
2023-02-09T15:25:34.185Z,14.70
2023-02-09T15:28:04.517Z,14.30
2023-02-09T15:30:36.650Z,13.60
2023-02-09T15:33:08.824Z,11.80
2023-02-09T15:35:41.834Z,11.70
2023-02-09T15:38:16.201Z,14.40
2023-02-09T15:41:08.279Z,11.60
2023-02-09T15:43:56.944Z,11.30
2023-02-09T15:46:46.118Z,14.60
2023-02-09T15:49:16.589Z,19.60
2023-02-09T15:51:46.331Z,21.10
2023-02-09T15:54:20.626Z,18.50
2023-02-09T15:56:51.043Z,19.40
2023-02-09T15:59:23.878Z,19.20
2023-02-09T16:01:54.805Z,16.80
2023-02-09T16:04:24.572Z,22.40
2023-02-09T16:06:55.904Z,19.20
2023-02-09T16:09:28.233Z,17.20
2023-02-09T16:11:59.566Z,24.00
2023-02-09T16:14:32.020Z,26.80
2023-02-09T16:17:01.671Z,22.20
2023-02-09T16:19:31.621Z,23.90
2023-02-09T16:22:09.891Z,24.30
2023-02-09T16:24:51.850Z,20.50
2023-02-09T16:27:31.324Z,15.00
2023-02-09T16:30:05.131Z,15.70
2023-02-09T16:32:37.566Z,18.80
2023-02-09T16:35:17.064Z,17.00
2023-02-09T16:37:50.190Z,19.90
2023-02-09T16:40:38.837Z,17.10
2023-02-09T16:43:13.157Z,29.60
2023-02-09T16:46:00.907Z,19.40
2023-02-09T16:48:38.377Z,15.60
2023-02-09T16:51:16.861Z,28.00
2023-02-09T16:53:54.595Z,25.70
2023-02-09T16:56:28.063Z,27.00
2023-02-09T16:59:03.372Z,23.40
2023-02-09T17:01:34.919Z,19.00
2023-02-09T17:04:09.902Z,16.90
2023-02-09T17:06:40.275Z,13.70
2023-02-09T17:09:16.779Z,16.30
2023-02-09T17:11:54.688Z,15.80
2023-02-09T17:14:28.671Z,14.70
2023-02-09T17:17:07.387Z,16.20
2023-02-09T17:19:47.295Z,17.10
2023-02-09T17:22:23.178Z,17.70
2023-02-09T17:24:53.819Z,22.50
2023-02-09T17:27:26.566Z,24.70
2023-02-09T17:29:56.885Z,22.10
2023-02-09T17:32:27.785Z,23.90
2023-02-09T17:34:57.960Z,21.50
2023-02-09T17:37:29.170Z,22.00
2023-02-09T17:39:59.530Z,23.80
2023-02-09T17:42:29.476Z,21.30
2023-02-09T17:44:59.826Z,31.30
2023-02-09T17:47:31.610Z,22.80
2023-02-09T17:50:03.265Z,30.50
2023-02-09T17:52:42.997Z,24.10
2023-02-09T17:55:26.516Z,29.10
2023-02-09T17:57:59.935Z,23.30
2023-02-09T18:00:37.431Z,28.70
2023-02-09T18:03:15.799Z,22.60
2023-02-09T18:05:52.885Z,33.20
2023-02-09T18:08:27.961Z,28.60
2023-02-09T18:10:59.677Z,26.50
2023-02-09T18:13:32.780Z,25.20
2023-02-09T18:16:07.938Z,28.60
2023-02-09T18:18:38.339Z,27.80
2023-02-09T18:21:16.630Z,28.40
2023-02-09T18:23:47.118Z,30.20
2023-02-09T18:26:18.147Z,28.00
2023-02-09T18:28:56.921Z,31.50
2023-02-09T18:31:26.436Z,29.50
2023-02-09T18:33:59.956Z,28.60
2023-02-09T18:36:29.574Z,34.00
2023-02-09T18:39:01.420Z,25.00
2023-02-09T18:41:36.232Z,29.20
2023-02-09T18:44:05.238Z,27.50
2023-02-09T18:46:38.051Z,29.20
2023-02-09T18:49:16.412Z,27.90
2023-02-09T18:52:03.376Z,28.10
2023-02-09T18:54:44.226Z,28.40
2023-02-09T18:57:23.591Z,22.60
2023-02-09T19:00:14.083Z,25.60
2023-02-09T19:02:48.429Z,27.40
2023-02-09T19:05:26.126Z,23.00
2023-02-09T19:08:11.681Z,25.30
2023-02-09T19:10:47.634Z,26.00
2023-02-09T19:13:20.617Z,35.00
2023-02-09T19:15:59.322Z,23.10
2023-02-09T19:18:32.177Z,32.50
2023-02-09T19:21:10.635Z,29.60
2023-02-09T19:23:43.598Z,28.60
2023-02-09T19:26:25.014Z,31.40
2023-02-09T19:29:02.319Z,29.90
2023-02-09T19:31:31.629Z,30.30
2023-02-09T19:34:00.962Z,28.30
2023-02-09T19:36:31.080Z,30.20
2023-02-09T19:39:05.755Z,30.40
2023-02-09T19:41:35.556Z,32.50
2023-02-09T19:44:06.799Z,31.00
2023-02-09T19:46:38.371Z,27.80
2023-02-09T19:49:10.626Z,34.50
2023-02-09T19:51:40.240Z,33.30
2023-02-09T19:54:09.437Z,27.70
2023-02-09T19:56:42.560Z,38.20
2023-02-09T19:59:14.070Z,36.80
2023-02-09T20:01:43.960Z,31.90
2023-02-09T20:04:15.618Z,34.80
2023-02-09T20:06:45.276Z,32.10
2023-02-09T20:09:17.929Z,32.40
2023-02-09T20:14:20.226Z,29.50
2023-02-09T20:16:54.221Z,30.90
2023-02-09T20:21:56.515Z,30.00
2023-02-09T20:24:27.119Z,30.70
2023-02-09T20:26:59.527Z,31.20
2023-02-09T20:29:30.479Z,36.50
2023-02-09T20:32:02.486Z,36.00
2023-02-09T20:34:32.914Z,40.40
2023-02-09T20:37:02.982Z,42.60
2023-02-09T20:39:34.798Z,35.60
2023-02-09T20:42:25.921Z,40.10
2023-02-09T20:45:14.504Z,40.60
2023-02-09T20:47:45.430Z,32.40
2023-02-09T20:50:22.619Z,36.60
2023-02-09T20:53:04.434Z,33.60
2023-02-09T20:55:46.526Z,41.20
2023-02-09T20:58:16.227Z,35.20
2023-02-09T21:00:46.959Z,31.40
2023-02-09T21:03:17.684Z,29.30
2023-02-09T21:05:48.329Z,31.00
2023-02-09T21:08:18.784Z,39.10
2023-02-09T21:10:59.350Z,40.00
2023-02-09T21:13:28.636Z,27.00
2023-02-09T21:15:58.646Z,33.40
2023-02-09T21:18:29.567Z,38.80
2023-02-09T21:21:09.706Z,34.30
2023-02-09T21:23:39.435Z,33.30
2023-02-09T21:26:12.911Z,41.10
2023-02-09T21:28:44.282Z,34.70
2023-02-09T21:31:27.586Z,32.80
2023-02-09T21:33:57.717Z,36.50
2023-02-09T21:36:27.464Z,36.00
2023-02-09T21:38:57.762Z,30.50
2023-02-09T21:41:46.620Z,37.80
2023-02-09T21:44:16.249Z,27.40
2023-02-09T21:46:46.344Z,28.10
2023-02-09T21:49:16.396Z,36.90
2023-02-09T21:51:46.421Z,33.80
2023-02-09T21:54:19.870Z,21.70
2023-02-09T21:56:49.554Z,33.10
2023-02-09T21:59:19.210Z,33.80
2023-02-09T22:01:49.426Z,31.50
2023-02-09T22:04:19.496Z,26.70
2023-02-09T22:06:49.765Z,17.90
2023-02-09T22:09:20.806Z,30.50
2023-02-09T22:11:51.928Z,30.50
2023-02-09T22:14:22.913Z,21.50
2023-02-09T22:16:52.920Z,33.80
2023-02-09T22:19:23.633Z,33.70
2023-02-09T22:21:57.274Z,36.00
2023-02-09T22:24:27.237Z,33.60
2023-02-09T22:26:58.286Z,26.90
2023-02-09T22:29:29.325Z,36.20
2023-02-09T22:31:58.373Z,37.00
2023-02-09T22:34:29.898Z,32.60
2023-02-09T22:36:59.302Z,36.10
2023-02-09T22:39:29.585Z,30.60
2023-02-09T22:42:02.405Z,24.90
2023-02-09T22:44:33.863Z,30.30
2023-02-09T22:47:03.250Z,33.10
2023-02-09T22:49:35.205Z,29.60
2023-02-09T22:52:05.639Z,35.60
2023-02-09T22:54:35.001Z,36.50
2023-02-09T22:57:04.256Z,30.80
2023-02-09T22:59:33.536Z,36.50
2023-02-09T23:02:05.430Z,35.50
2023-02-09T23:07:09.275Z,32.20
2023-02-09T23:09:38.761Z,35.90
2023-02-09T23:12:10.903Z,34.30
2023-02-09T23:14:41.128Z,36.50
2023-02-09T23:17:10.969Z,41.40
2023-02-09T23:19:45.482Z,25.80
2023-02-09T23:22:17.201Z,17.70
2023-02-09T23:24:49.884Z,32.70
2023-02-09T23:27:22.800Z,21.30
2023-02-09T23:29:54.675Z,25.00
2023-02-09T23:32:24.454Z,30.60
2023-02-09T23:34:57.023Z,19.50
2023-02-09T23:37:37.182Z,28.80
2023-02-09T23:40:12.343Z,26.20
2023-02-09T23:42:42.090Z,38.00
2023-02-09T23:45:11.748Z,33.80
2023-02-09T23:47:44.774Z,32.80
2023-02-09T23:50:14.443Z,28.50
2023-02-09T23:52:45.477Z,31.90
2023-02-09T23:55:15.201Z,36.60
2023-02-09T23:57:44.907Z,48.20
